sensor_id;sensor_type;location;lat;lon;timestamp;temperature;humidity
21734;DHT22;11029;47.820;10.534;2023-08-08T00:01:10;8.70;82.40
21734;DHT22;11029;47.820;10.534;2023-08-08T00:03:37;8.70;82.30
21734;DHT22;11029;47.820;10.534;2023-08-08T00:06:04;8.60;82.10
21734;DHT22;11029;47.820;10.534;2023-08-08T00:08:31;8.60;82.60
21734;DHT22;11029;47.820;10.534;2023-08-08T00:10:58;8.60;82.00
21734;DHT22;11029;47.820;10.534;2023-08-08T00:13:24;8.50;82.20
21734;DHT22;11029;47.820;10.534;2023-08-08T00:15:51;8.50;82.30
21734;DHT22;11029;47.820;10.534;2023-08-08T00:18:18;8.50;82.50
21734;DHT22;11029;47.820;10.534;2023-08-08T00:20:45;8.90;81.60
21734;DHT22;11029;47.820;10.534;2023-08-08T00:23:12;8.50;83.00
21734;DHT22;11029;47.820;10.534;2023-08-08T00:25:39;8.50;82.90
21734;DHT22;11029;47.820;10.534;2023-08-08T00:28:06;8.50;83.10
21734;DHT22;11029;47.820;10.534;2023-08-08T00:30:33;8.50;83.20
21734;DHT22;11029;47.820;10.534;2023-08-08T00:33:01;8.50;83.20
21734;DHT22;11029;47.820;10.534;2023-08-08T00:35:28;8.60;83.10
21734;DHT22;11029;47.820;10.534;2023-08-08T00:37:55;8.50;83.20
21734;DHT22;11029;47.820;10.534;2023-08-08T00:40:22;8.50;83.20
21734;DHT22;11029;47.820;10.534;2023-08-08T00:42:48;8.50;83.20
21734;DHT22;11029;47.820;10.534;2023-08-08T00:45:15;8.50;83.30
21734;DHT22;11029;47.820;10.534;2023-08-08T00:47:42;8.50;83.50
21734;DHT22;11029;47.820;10.534;2023-08-08T00:50:10;8.50;83.50
21734;DHT22;11029;47.820;10.534;2023-08-08T00:52:37;8.50;83.50
21734;DHT22;11029;47.820;10.534;2023-08-08T00:55:05;9.10;81.80
21734;DHT22;11029;47.820;10.534;2023-08-08T00:57:32;8.60;83.00
21734;DHT22;11029;47.820;10.534;2023-08-08T01:00:01;8.50;83.40
21734;DHT22;11029;47.820;10.534;2023-08-08T01:02:29;8.50;83.30
21734;DHT22;11029;47.820;10.534;2023-08-08T01:04:57;8.50;83.20
21734;DHT22;11029;47.820;10.534;2023-08-08T01:07:32;8.50;83.10
21734;DHT22;11029;47.820;10.534;2023-08-08T01:10:09;8.40;83.20
21734;DHT22;11029;47.820;10.534;2023-08-08T01:12:41;8.50;83.40
21734;DHT22;11029;47.820;10.534;2023-08-08T01:15:10;8.50;83.30
21734;DHT22;11029;47.820;10.534;2023-08-08T01:17:38;8.50;83.20
21734;DHT22;11029;47.820;10.534;2023-08-08T01:20:07;8.40;83.60
21734;DHT22;11029;47.820;10.534;2023-08-08T01:22:43;8.40;83.50
21734;DHT22;11029;47.820;10.534;2023-08-08T01:25:11;8.50;83.50
21734;DHT22;11029;47.820;10.534;2023-08-08T01:27:38;8.50;83.40
21734;DHT22;11029;47.820;10.534;2023-08-08T01:30:07;8.40;83.00
21734;DHT22;11029;47.820;10.534;2023-08-08T01:32:34;8.40;83.80
21734;DHT22;11029;47.820;10.534;2023-08-08T01:35:01;8.40;84.00
21734;DHT22;11029;47.820;10.534;2023-08-08T01:37:33;8.40;84.00
21734;DHT22;11029;47.820;10.534;2023-08-08T01:40:01;8.40;83.80
21734;DHT22;11029;47.820;10.534;2023-08-08T01:42:30;8.40;84.00
21734;DHT22;11029;47.820;10.534;2023-08-08T01:44:57;8.40;83.80
21734;DHT22;11029;47.820;10.534;2023-08-08T01:47:24;8.30;83.60
21734;DHT22;11029;47.820;10.534;2023-08-08T01:49:51;8.30;83.80
21734;DHT22;11029;47.820;10.534;2023-08-08T01:52:18;8.30;84.10
21734;DHT22;11029;47.820;10.534;2023-08-08T01:54:45;8.20;84.10
21734;DHT22;11029;47.820;10.534;2023-08-08T01:57:12;8.20;84.10
21734;DHT22;11029;47.820;10.534;2023-08-08T01:59:39;8.20;83.90
21734;DHT22;11029;47.820;10.534;2023-08-08T02:02:06;8.20;84.30
21734;DHT22;11029;47.820;10.534;2023-08-08T02:04:33;8.20;84.10
21734;DHT22;11029;47.820;10.534;2023-08-08T02:07:00;8.10;84.20
21734;DHT22;11029;47.820;10.534;2023-08-08T02:09:27;8.10;84.20
21734;DHT22;11029;47.820;10.534;2023-08-08T02:11:54;8.10;84.30
21734;DHT22;11029;47.820;10.534;2023-08-08T02:14:21;8.00;84.50
21734;DHT22;11029;47.820;10.534;2023-08-08T02:16:48;8.00;84.40
21734;DHT22;11029;47.820;10.534;2023-08-08T02:19:14;8.00;84.30
21734;DHT22;11029;47.820;10.534;2023-08-08T02:21:41;8.00;84.20
21734;DHT22;11029;47.820;10.534;2023-08-08T02:24:09;8.00;84.40
21734;DHT22;11029;47.820;10.534;2023-08-08T02:26:36;8.00;84.10
21734;DHT22;11029;47.820;10.534;2023-08-08T02:29:05;8.00;83.90
21734;DHT22;11029;47.820;10.534;2023-08-08T02:31:32;8.00;84.10
21734;DHT22;11029;47.820;10.534;2023-08-08T02:33:59;7.90;83.90
21734;DHT22;11029;47.820;10.534;2023-08-08T02:36:26;7.90;83.90
21734;DHT22;11029;47.820;10.534;2023-08-08T02:38:53;7.90;84.10
21734;DHT22;11029;47.820;10.534;2023-08-08T02:41:20;7.80;84.00
21734;DHT22;11029;47.820;10.534;2023-08-08T02:43:47;7.80;83.80
21734;DHT22;11029;47.820;10.534;2023-08-08T02:46:15;7.80;84.10
21734;DHT22;11029;47.820;10.534;2023-08-08T02:48:42;7.80;84.50
21734;DHT22;11029;47.820;10.534;2023-08-08T02:51:09;7.80;84.60
21734;DHT22;11029;47.820;10.534;2023-08-08T02:53:37;7.80;84.50
21734;DHT22;11029;47.820;10.534;2023-08-08T02:56:04;7.90;84.20
21734;DHT22;11029;47.820;10.534;2023-08-08T02:58:35;7.90;83.50
21734;DHT22;11029;47.820;10.534;2023-08-08T03:01:01;7.90;83.30
21734;DHT22;11029;47.820;10.534;2023-08-08T03:03:28;7.80;83.10
21734;DHT22;11029;47.820;10.534;2023-08-08T03:05:55;7.80;82.90
21734;DHT22;11029;47.820;10.534;2023-08-08T03:08:23;7.80;83.60
21734;DHT22;11029;47.820;10.534;2023-08-08T03:10:49;7.80;84.10
21734;DHT22;11029;47.820;10.534;2023-08-08T03:13:17;7.80;84.20
21734;DHT22;11029;47.820;10.534;2023-08-08T03:15:43;7.90;84.10
21734;DHT22;11029;47.820;10.534;2023-08-08T03:18:10;7.90;84.00
21734;DHT22;11029;47.820;10.534;2023-08-08T03:20:37;7.90;84.30
21734;DHT22;11029;47.820;10.534;2023-08-08T03:23:05;8.00;84.20
21734;DHT22;11029;47.820;10.534;2023-08-08T03:25:33;8.00;84.10
21734;DHT22;11029;47.820;10.534;2023-08-08T03:28:01;8.10;84.10
21734;DHT22;11029;47.820;10.534;2023-08-08T03:30:28;8.10;83.80
21734;DHT22;11029;47.820;10.534;2023-08-08T03:32:55;8.10;83.90
21734;DHT22;11029;47.820;10.534;2023-08-08T03:35:22;8.10;84.00
21734;DHT22;11029;47.820;10.534;2023-08-08T03:37:48;8.10;84.00
21734;DHT22;11029;47.820;10.534;2023-08-08T03:40:16;8.20;84.00
21734;DHT22;11029;47.820;10.534;2023-08-08T03:42:42;8.20;83.80
21734;DHT22;11029;47.820;10.534;2023-08-08T03:45:10;8.20;83.80
21734;DHT22;11029;47.820;10.534;2023-08-08T03:47:37;8.10;83.60
21734;DHT22;11029;47.820;10.534;2023-08-08T03:50:05;8.10;83.60
21734;DHT22;11029;47.820;10.534;2023-08-08T03:52:32;8.10;83.50
21734;DHT22;11029;47.820;10.534;2023-08-08T03:55:02;8.10;83.40
21734;DHT22;11029;47.820;10.534;2023-08-08T03:57:30;8.00;83.90
21734;DHT22;11029;47.820;10.534;2023-08-08T03:59:57;8.00;83.90
21734;DHT22;11029;47.820;10.534;2023-08-08T04:02:25;8.10;83.70
21734;DHT22;11029;47.820;10.534;2023-08-08T04:04:52;8.10;83.70
21734;DHT22;11029;47.820;10.534;2023-08-08T04:07:19;8.00;83.70
21734;DHT22;11029;47.820;10.534;2023-08-08T04:09:47;8.00;83.90
21734;DHT22;11029;47.820;10.534;2023-08-08T04:12:14;8.00;83.90
21734;DHT22;11029;47.820;10.534;2023-08-08T04:14:41;8.00;84.10
21734;DHT22;11029;47.820;10.534;2023-08-08T04:17:07;8.00;84.00
21734;DHT22;11029;47.820;10.534;2023-08-08T04:19:34;8.00;84.00
21734;DHT22;11029;47.820;10.534;2023-08-08T04:22:01;8.00;84.20
21734;DHT22;11029;47.820;10.534;2023-08-08T04:24:28;8.00;84.30
21734;DHT22;11029;47.820;10.534;2023-08-08T04:26:55;8.10;84.00
21734;DHT22;11029;47.820;10.534;2023-08-08T04:29:21;8.10;84.10
21734;DHT22;11029;47.820;10.534;2023-08-08T04:31:48;8.10;84.10
21734;DHT22;11029;47.820;10.534;2023-08-08T04:34:15;8.10;84.10
21734;DHT22;11029;47.820;10.534;2023-08-08T04:36:42;8.20;83.90
21734;DHT22;11029;47.820;10.534;2023-08-08T04:39:08;8.20;83.60
21734;DHT22;11029;47.820;10.534;2023-08-08T04:41:35;8.30;83.70
21734;DHT22;11029;47.820;10.534;2023-08-08T04:44:02;8.40;83.20
21734;DHT22;11029;47.820;10.534;2023-08-08T04:46:29;8.30;83.10
21734;DHT22;11029;47.820;10.534;2023-08-08T04:48:56;8.40;83.40
21734;DHT22;11029;47.820;10.534;2023-08-08T04:51:24;8.40;83.20
21734;DHT22;11029;47.820;10.534;2023-08-08T04:53:51;8.40;83.10
21734;DHT22;11029;47.820;10.534;2023-08-08T04:56:17;8.50;83.00
21734;DHT22;11029;47.820;10.534;2023-08-08T04:58:45;8.50;82.90
21734;DHT22;11029;47.820;10.534;2023-08-08T05:01:11;8.60;82.70
21734;DHT22;11029;47.820;10.534;2023-08-08T05:03:41;8.60;82.90
21734;DHT22;11029;47.820;10.534;2023-08-08T05:06:08;8.60;82.80
21734;DHT22;11029;47.820;10.534;2023-08-08T05:08:35;8.70;82.60
21734;DHT22;11029;47.820;10.534;2023-08-08T05:11:01;8.70;82.10
21734;DHT22;11029;47.820;10.534;2023-08-08T05:13:28;8.80;82.20
21734;DHT22;11029;47.820;10.534;2023-08-08T05:15:55;8.80;82.20
21734;DHT22;11029;47.820;10.534;2023-08-08T05:18:22;8.80;82.10
21734;DHT22;11029;47.820;10.534;2023-08-08T05:20:49;8.80;82.20
21734;DHT22;11029;47.820;10.534;2023-08-08T05:23:15;8.90;82.30
21734;DHT22;11029;47.820;10.534;2023-08-08T05:25:42;9.00;82.30
21734;DHT22;11029;47.820;10.534;2023-08-08T05:28:09;9.00;82.00
21734;DHT22;11029;47.820;10.534;2023-08-08T05:30:36;9.00;82.20
21734;DHT22;11029;47.820;10.534;2023-08-08T05:33:03;9.10;82.20
21734;DHT22;11029;47.820;10.534;2023-08-08T05:35:30;9.20;82.20
21734;DHT22;11029;47.820;10.534;2023-08-08T05:37:57;9.30;82.00
21734;DHT22;11029;47.820;10.534;2023-08-08T05:40:24;9.40;81.80
21734;DHT22;11029;47.820;10.534;2023-08-08T05:42:50;9.60;81.60
21734;DHT22;11029;47.820;10.534;2023-08-08T05:45:17;9.70;81.30
21734;DHT22;11029;47.820;10.534;2023-08-08T05:47:44;9.80;80.90
21734;DHT22;11029;47.820;10.534;2023-08-08T05:50:11;9.90;80.90
21734;DHT22;11029;47.820;10.534;2023-08-08T05:52:38;10.00;80.70
21734;DHT22;11029;47.820;10.534;2023-08-08T05:55:05;10.10;80.40
21734;DHT22;11029;47.820;10.534;2023-08-08T05:57:32;10.20;80.40
21734;DHT22;11029;47.820;10.534;2023-08-08T05:59:58;10.30;80.00
21734;DHT22;11029;47.820;10.534;2023-08-08T06:02:38;10.50;79.70
21734;DHT22;11029;47.820;10.534;2023-08-08T06:05:05;10.50;79.20
21734;DHT22;11029;47.820;10.534;2023-08-08T06:07:32;10.60;78.60
21734;DHT22;11029;47.820;10.534;2023-08-08T06:09:59;10.70;78.20
21734;DHT22;11029;47.820;10.534;2023-08-08T06:12:26;10.60;78.10
21734;DHT22;11029;47.820;10.534;2023-08-08T06:14:52;10.70;78.20
21734;DHT22;11029;47.820;10.534;2023-08-08T06:17:19;10.80;78.20
21734;DHT22;11029;47.820;10.534;2023-08-08T06:19:46;10.90;78.20
21734;DHT22;11029;47.820;10.534;2023-08-08T06:22:13;11.00;78.30
21734;DHT22;11029;47.820;10.534;2023-08-08T06:24:40;11.10;78.00
21734;DHT22;11029;47.820;10.534;2023-08-08T06:27:07;11.20;77.60
21734;DHT22;11029;47.820;10.534;2023-08-08T06:29:33;11.20;77.30
21734;DHT22;11029;47.820;10.534;2023-08-08T06:32:00;11.30;77.50
21734;DHT22;11029;47.820;10.534;2023-08-08T06:34:28;11.30;77.90
21734;DHT22;11029;47.820;10.534;2023-08-08T06:36:54;11.40;77.90
21734;DHT22;11029;47.820;10.534;2023-08-08T06:39:21;11.50;76.70
21734;DHT22;11029;47.820;10.534;2023-08-08T06:41:48;11.60;75.40
21734;DHT22;11029;47.820;10.534;2023-08-08T06:44:19;11.60;72.90
21734;DHT22;11029;47.820;10.534;2023-08-08T06:46:46;11.70;71.00
21734;DHT22;11029;47.820;10.534;2023-08-08T06:49:13;11.80;70.20
21734;DHT22;11029;47.820;10.534;2023-08-08T06:51:39;11.90;69.70
21734;DHT22;11029;47.820;10.534;2023-08-08T06:54:06;11.90;69.00
21734;DHT22;11029;47.820;10.534;2023-08-08T06:56:34;12.10;67.30
21734;DHT22;11029;47.820;10.534;2023-08-08T06:59:01;12.10;68.10
21734;DHT22;11029;47.820;10.534;2023-08-08T07:01:27;12.20;66.70
21734;DHT22;11029;47.820;10.534;2023-08-08T07:03:57;12.20;66.70
21734;DHT22;11029;47.820;10.534;2023-08-08T07:06:24;12.30;66.20
21734;DHT22;11029;47.820;10.534;2023-08-08T07:08:51;12.30;65.30
21734;DHT22;11029;47.820;10.534;2023-08-08T07:11:18;12.40;65.00
21734;DHT22;11029;47.820;10.534;2023-08-08T07:13:44;12.50;66.10
21734;DHT22;11029;47.820;10.534;2023-08-08T07:16:11;12.60;64.50
21734;DHT22;11029;47.820;10.534;2023-08-08T07:18:38;12.70;65.90
21734;DHT22;11029;47.820;10.534;2023-08-08T07:21:05;12.80;67.20
21734;DHT22;11029;47.820;10.534;2023-08-08T07:23:32;12.90;67.10
21734;DHT22;11029;47.820;10.534;2023-08-08T07:25:59;13.00;66.80
21734;DHT22;11029;47.820;10.534;2023-08-08T07:28:26;13.10;66.00
21734;DHT22;11029;47.820;10.534;2023-08-08T07:30:53;13.20;65.80
21734;DHT22;11029;47.820;10.534;2023-08-08T07:33:19;13.30;64.10
21734;DHT22;11029;47.820;10.534;2023-08-08T07:35:46;13.20;64.90
21734;DHT22;11029;47.820;10.534;2023-08-08T07:38:13;13.30;65.90
21734;DHT22;11029;47.820;10.534;2023-08-08T07:40:40;13.30;64.70
21734;DHT22;11029;47.820;10.534;2023-08-08T07:43:07;13.30;64.00
21734;DHT22;11029;47.820;10.534;2023-08-08T07:45:34;13.30;64.30
21734;DHT22;11029;47.820;10.534;2023-08-08T07:48:01;13.40;64.00
21734;DHT22;11029;47.820;10.534;2023-08-08T07:50:28;13.40;65.40
21734;DHT22;11029;47.820;10.534;2023-08-08T07:52:55;13.50;64.80
21734;DHT22;11029;47.820;10.534;2023-08-08T07:55:21;13.60;64.70
21734;DHT22;11029;47.820;10.534;2023-08-08T07:57:48;13.60;64.00
21734;DHT22;11029;47.820;10.534;2023-08-08T08:00:15;13.70;64.30
21734;DHT22;11029;47.820;10.534;2023-08-08T08:02:45;13.80;64.60
21734;DHT22;11029;47.820;10.534;2023-08-08T08:05:13;13.90;63.60
21734;DHT22;11029;47.820;10.534;2023-08-08T08:07:40;14.00;64.00
21734;DHT22;11029;47.820;10.534;2023-08-08T08:10:08;14.10;63.00
21734;DHT22;11029;47.820;10.534;2023-08-08T08:12:35;14.10;64.10
21734;DHT22;11029;47.820;10.534;2023-08-08T08:15:02;14.10;64.40
21734;DHT22;11029;47.820;10.534;2023-08-08T08:17:29;14.30;64.60
21734;DHT22;11029;47.820;10.534;2023-08-08T08:19:56;14.30;63.20
21734;DHT22;11029;47.820;10.534;2023-08-08T08:22:22;14.20;63.70
21734;DHT22;11029;47.820;10.534;2023-08-08T08:24:49;14.30;64.80
21734;DHT22;11029;47.820;10.534;2023-08-08T08:27:17;14.40;63.60
21734;DHT22;11029;47.820;10.534;2023-08-08T08:29:44;14.50;63.90
21734;DHT22;11029;47.820;10.534;2023-08-08T08:32:11;14.60;64.70
21734;DHT22;11029;47.820;10.534;2023-08-08T08:34:38;14.70;63.10
21734;DHT22;11029;47.820;10.534;2023-08-08T08:37:04;14.50;63.30
21734;DHT22;11029;47.820;10.534;2023-08-08T08:39:31;14.60;64.60
21734;DHT22;11029;47.820;10.534;2023-08-08T08:42:02;14.70;63.20
21734;DHT22;11029;47.820;10.534;2023-08-08T08:44:32;14.80;65.50
21734;DHT22;11029;47.820;10.534;2023-08-08T08:47:03;14.90;62.90
21734;DHT22;11029;47.820;10.534;2023-08-08T08:49:31;15.00;63.40
21734;DHT22;11029;47.820;10.534;2023-08-08T08:51:59;15.20;63.10
21734;DHT22;11029;47.820;10.534;2023-08-08T08:54:29;15.10;61.90
21734;DHT22;11029;47.820;10.534;2023-08-08T08:56:57;15.10;62.30
21734;DHT22;11029;47.820;10.534;2023-08-08T08:59:24;15.00;59.60
21734;DHT22;11029;47.820;10.534;2023-08-08T09:01:51;14.90;59.70
21734;DHT22;11029;47.820;10.534;2023-08-08T09:04:20;15.00;57.90
21734;DHT22;11029;47.820;10.534;2023-08-08T09:06:48;15.10;59.20
21734;DHT22;11029;47.820;10.534;2023-08-08T09:09:16;15.20;59.40
21734;DHT22;11029;47.820;10.534;2023-08-08T09:11:45;15.40;59.20
21734;DHT22;11029;47.820;10.534;2023-08-08T09:14:20;15.40;56.20
21734;DHT22;11029;47.820;10.534;2023-08-08T09:16:47;15.40;55.80
21734;DHT22;11029;47.820;10.534;2023-08-08T09:19:15;15.30;54.90
21734;DHT22;11029;47.820;10.534;2023-08-08T09:21:42;15.40;56.60
21734;DHT22;11029;47.820;10.534;2023-08-08T09:24:09;15.60;54.80
21734;DHT22;11029;47.820;10.534;2023-08-08T09:26:36;15.70;54.70
21734;DHT22;11029;47.820;10.534;2023-08-08T09:29:03;15.70;53.10
21734;DHT22;11029;47.820;10.534;2023-08-08T09:31:30;15.90;55.00
21734;DHT22;11029;47.820;10.534;2023-08-08T09:33:58;15.90;52.80
21734;DHT22;11029;47.820;10.534;2023-08-08T09:36:26;15.80;51.80
21734;DHT22;11029;47.820;10.534;2023-08-08T09:38:53;15.60;52.60
21734;DHT22;11029;47.820;10.534;2023-08-08T09:41:22;15.70;54.60
21734;DHT22;11029;47.820;10.534;2023-08-08T09:43:53;15.80;52.50
21734;DHT22;11029;47.820;10.534;2023-08-08T09:46:20;15.90;53.20
21734;DHT22;11029;47.820;10.534;2023-08-08T09:48:48;16.00;52.90
21734;DHT22;11029;47.820;10.534;2023-08-08T09:51:15;16.10;54.90
21734;DHT22;11029;47.820;10.534;2023-08-08T09:53:42;16.30;53.30
21734;DHT22;11029;47.820;10.534;2023-08-08T09:56:09;16.30;53.00
21734;DHT22;11029;47.820;10.534;2023-08-08T09:58:36;16.30;52.30
21734;DHT22;11029;47.820;10.534;2023-08-08T10:01:02;16.10;52.50
21734;DHT22;11029;47.820;10.534;2023-08-08T10:03:31;16.40;50.40
21734;DHT22;11029;47.820;10.534;2023-08-08T10:06:01;16.10;50.50
21734;DHT22;11029;47.820;10.534;2023-08-08T10:08:27;16.20;51.70
21734;DHT22;11029;47.820;10.534;2023-08-08T10:10:55;16.30;53.20
21734;DHT22;11029;47.820;10.534;2023-08-08T10:13:24;16.50;55.40
21734;DHT22;11029;47.820;10.534;2023-08-08T10:15:52;16.30;51.80
21734;DHT22;11029;47.820;10.534;2023-08-08T10:18:22;16.20;53.40
21734;DHT22;11029;47.820;10.534;2023-08-08T10:20:50;16.30;53.00
21734;DHT22;11029;47.820;10.534;2023-08-08T10:23:18;16.20;54.00
21734;DHT22;11029;47.820;10.534;2023-08-08T10:25:51;16.30;52.80
21734;DHT22;11029;47.820;10.534;2023-08-08T10:28:20;16.30;52.30
21734;DHT22;11029;47.820;10.534;2023-08-08T10:30:55;16.30;54.30
21734;DHT22;11029;47.820;10.534;2023-08-08T10:33:23;16.30;53.40
21734;DHT22;11029;47.820;10.534;2023-08-08T10:36:10;16.40;52.10
21734;DHT22;11029;47.820;10.534;2023-08-08T10:38:47;16.50;53.30
21734;DHT22;11029;47.820;10.534;2023-08-08T10:41:18;16.70;52.10
21734;DHT22;11029;47.820;10.534;2023-08-08T10:43:54;16.70;53.10
21734;DHT22;11029;47.820;10.534;2023-08-08T10:46:24;16.80;52.10
21734;DHT22;11029;47.820;10.534;2023-08-08T10:48:57;16.60;51.60
21734;DHT22;11029;47.820;10.534;2023-08-08T10:51:40;16.60;51.70
21734;DHT22;11029;47.820;10.534;2023-08-08T10:54:14;16.60;52.90
21734;DHT22;11029;47.820;10.534;2023-08-08T10:56:49;16.60;51.40
21734;DHT22;11029;47.820;10.534;2023-08-08T10:59:18;16.60;50.30
21734;DHT22;11029;47.820;10.534;2023-08-08T11:01:49;16.40;49.90
21734;DHT22;11029;47.820;10.534;2023-08-08T11:04:19;16.50;52.20
21734;DHT22;11029;47.820;10.534;2023-08-08T11:06:46;16.60;50.50
21734;DHT22;11029;47.820;10.534;2023-08-08T11:09:17;16.60;49.10
21734;DHT22;11029;47.820;10.534;2023-08-08T11:11:45;16.70;49.60
21734;DHT22;11029;47.820;10.534;2023-08-08T11:14:15;16.80;47.80
21734;DHT22;11029;47.820;10.534;2023-08-08T11:16:45;16.90;47.60
21734;DHT22;11029;47.820;10.534;2023-08-08T11:19:13;17.00;48.30
21734;DHT22;11029;47.820;10.534;2023-08-08T11:21:42;17.00;49.50
21734;DHT22;11029;47.820;10.534;2023-08-08T11:24:10;17.20;47.60
21734;DHT22;11029;47.820;10.534;2023-08-08T11:26:38;17.10;48.80
21734;DHT22;11029;47.820;10.534;2023-08-08T11:29:06;17.10;48.00
21734;DHT22;11029;47.820;10.534;2023-08-08T11:31:37;17.10;46.50
21734;DHT22;11029;47.820;10.534;2023-08-08T11:34:05;17.10;48.00
21734;DHT22;11029;47.820;10.534;2023-08-08T11:36:35;17.20;48.50
21734;DHT22;11029;47.820;10.534;2023-08-08T11:39:04;17.20;46.70
21734;DHT22;11029;47.820;10.534;2023-08-08T11:41:36;17.40;45.10
21734;DHT22;11029;47.820;10.534;2023-08-08T11:44:04;17.40;48.10
21734;DHT22;11029;47.820;10.534;2023-08-08T11:46:32;17.40;45.60
21734;DHT22;11029;47.820;10.534;2023-08-08T11:49:03;17.30;47.40
21734;DHT22;11029;47.820;10.534;2023-08-08T11:51:30;17.30;45.40
21734;DHT22;11029;47.820;10.534;2023-08-08T11:53:59;17.30;46.00
21734;DHT22;11029;47.820;10.534;2023-08-08T11:56:27;17.40;46.40
21734;DHT22;11029;47.820;10.534;2023-08-08T11:58:55;17.20;47.00
21734;DHT22;11029;47.820;10.534;2023-08-08T12:01:22;17.20;48.20
21734;DHT22;11029;47.820;10.534;2023-08-08T12:03:49;17.30;47.90
21734;DHT22;11029;47.820;10.534;2023-08-08T12:06:17;17.30;47.90
21734;DHT22;11029;47.820;10.534;2023-08-08T12:08:45;17.30;49.40
21734;DHT22;11029;47.820;10.534;2023-08-08T12:11:13;17.40;49.00
21734;DHT22;11029;47.820;10.534;2023-08-08T12:13:41;17.30;47.90
21734;DHT22;11029;47.820;10.534;2023-08-08T12:16:10;17.40;48.20
21734;DHT22;11029;47.820;10.534;2023-08-08T12:18:43;17.60;49.00
21734;DHT22;11029;47.820;10.534;2023-08-08T12:21:10;17.60;47.60
21734;DHT22;11029;47.820;10.534;2023-08-08T12:23:37;17.70;44.70
21734;DHT22;11029;47.820;10.534;2023-08-08T12:26:05;17.60;46.00
21734;DHT22;11029;47.820;10.534;2023-08-08T12:28:33;17.90;46.20
21734;DHT22;11029;47.820;10.534;2023-08-08T12:31:01;17.80;46.30
21734;DHT22;11029;47.820;10.534;2023-08-08T12:33:28;17.90;49.50
21734;DHT22;11029;47.820;10.534;2023-08-08T12:35:55;17.90;46.60
21734;DHT22;11029;47.820;10.534;2023-08-08T12:38:21;17.90;46.90
21734;DHT22;11029;47.820;10.534;2023-08-08T12:40:48;18.00;45.50
21734;DHT22;11029;47.820;10.534;2023-08-08T12:43:15;18.10;48.40
21734;DHT22;11029;47.820;10.534;2023-08-08T12:45:45;18.10;47.40
21734;DHT22;11029;47.820;10.534;2023-08-08T12:48:12;17.90;44.10
21734;DHT22;11029;47.820;10.534;2023-08-08T12:50:39;17.80;45.80
21734;DHT22;11029;47.820;10.534;2023-08-08T12:53:07;17.70;44.00
21734;DHT22;11029;47.820;10.534;2023-08-08T12:55:34;17.80;44.00
21734;DHT22;11029;47.820;10.534;2023-08-08T12:58:02;17.70;45.30
21734;DHT22;11029;47.820;10.534;2023-08-08T13:00:29;17.70;47.80
21734;DHT22;11029;47.820;10.534;2023-08-08T13:02:56;17.80;47.60
21734;DHT22;11029;47.820;10.534;2023-08-08T13:05:23;17.70;44.70
21734;DHT22;11029;47.820;10.534;2023-08-08T13:07:50;17.50;45.70
21734;DHT22;11029;47.820;10.534;2023-08-08T13:10:17;17.70;43.00
21734;DHT22;11029;47.820;10.534;2023-08-08T13:12:47;17.40;47.00
21734;DHT22;11029;47.820;10.534;2023-08-08T13:15:14;17.70;44.20
21734;DHT22;11029;47.820;10.534;2023-08-08T13:17:42;17.90;45.90
21734;DHT22;11029;47.820;10.534;2023-08-08T13:20:09;18.30;43.90
21734;DHT22;11029;47.820;10.534;2023-08-08T13:22:36;18.40;44.40
21734;DHT22;11029;47.820;10.534;2023-08-08T13:25:04;18.80;43.80
21734;DHT22;11029;47.820;10.534;2023-08-08T13:27:32;18.80;42.90
21734;DHT22;11029;47.820;10.534;2023-08-08T13:29:59;18.70;40.70
21734;DHT22;11029;47.820;10.534;2023-08-08T13:32:25;19.10;41.60
21734;DHT22;11029;47.820;10.534;2023-08-08T13:34:52;19.20;41.10
21734;DHT22;11029;47.820;10.534;2023-08-08T13:37:19;19.10;43.10
21734;DHT22;11029;47.820;10.534;2023-08-08T13:39:46;18.90;42.30
21734;DHT22;11029;47.820;10.534;2023-08-08T13:42:13;19.30;44.10
21734;DHT22;11029;47.820;10.534;2023-08-08T13:44:39;19.40;44.00
21734;DHT22;11029;47.820;10.534;2023-08-08T13:47:06;19.10;42.70
21734;DHT22;11029;47.820;10.534;2023-08-08T13:49:33;18.90;41.70
21734;DHT22;11029;47.820;10.534;2023-08-08T13:52:02;18.80;43.10
21734;DHT22;11029;47.820;10.534;2023-08-08T13:54:29;18.50;43.30
21734;DHT22;11029;47.820;10.534;2023-08-08T13:56:56;18.60;45.30
21734;DHT22;11029;47.820;10.534;2023-08-08T13:59:24;18.40;43.10
21734;DHT22;11029;47.820;10.534;2023-08-08T14:01:51;18.10;45.20
21734;DHT22;11029;47.820;10.534;2023-08-08T14:04:18;18.00;46.10
21734;DHT22;11029;47.820;10.534;2023-08-08T14:06:45;18.10;46.60
21734;DHT22;11029;47.820;10.534;2023-08-08T14:09:12;18.30;46.30
21734;DHT22;11029;47.820;10.534;2023-08-08T14:11:41;18.60;44.60
21734;DHT22;11029;47.820;10.534;2023-08-08T14:14:07;18.60;44.90
21734;DHT22;11029;47.820;10.534;2023-08-08T14:16:34;18.70;45.00
21734;DHT22;11029;47.820;10.534;2023-08-08T14:19:01;18.70;45.90
21734;DHT22;11029;47.820;10.534;2023-08-08T14:21:28;18.90;45.10
21734;DHT22;11029;47.820;10.534;2023-08-08T14:23:55;19.20;45.20
21734;DHT22;11029;47.820;10.534;2023-08-08T14:26:22;19.30;43.70
21734;DHT22;11029;47.820;10.534;2023-08-08T14:28:48;19.50;44.30
21734;DHT22;11029;47.820;10.534;2023-08-08T14:31:15;19.90;45.70
21734;DHT22;11029;47.820;10.534;2023-08-08T14:33:42;19.80;43.80
21734;DHT22;11029;47.820;10.534;2023-08-08T14:36:09;19.30;43.50
21734;DHT22;11029;47.820;10.534;2023-08-08T14:38:36;19.40;45.10
21734;DHT22;11029;47.820;10.534;2023-08-08T14:41:03;19.40;42.70
21734;DHT22;11029;47.820;10.534;2023-08-08T14:43:30;19.70;43.70
21734;DHT22;11029;47.820;10.534;2023-08-08T14:45:57;19.50;42.70
21734;DHT22;11029;47.820;10.534;2023-08-08T14:48:24;19.50;43.30
21734;DHT22;11029;47.820;10.534;2023-08-08T14:50:51;19.30;43.80
21734;DHT22;11029;47.820;10.534;2023-08-08T14:53:18;19.50;45.80
21734;DHT22;11029;47.820;10.534;2023-08-08T14:55:45;19.80;43.80
21734;DHT22;11029;47.820;10.534;2023-08-08T14:58:12;20.00;43.10
21734;DHT22;11029;47.820;10.534;2023-08-08T15:00:39;19.90;43.30
21734;DHT22;11029;47.820;10.534;2023-08-08T15:03:05;19.60;43.60
21734;DHT22;11029;47.820;10.534;2023-08-08T15:05:32;19.30;45.20
21734;DHT22;11029;47.820;10.534;2023-08-08T15:07:59;19.40;47.10
21734;DHT22;11029;47.820;10.534;2023-08-08T15:10:26;19.60;46.30
21734;DHT22;11029;47.820;10.534;2023-08-08T15:12:53;19.50;45.30
21734;DHT22;11029;47.820;10.534;2023-08-08T15:15:20;19.20;47.20
21734;DHT22;11029;47.820;10.534;2023-08-08T15:17:49;18.90;46.20
21734;DHT22;11029;47.820;10.534;2023-08-08T15:20:16;18.90;45.30
21734;DHT22;11029;47.820;10.534;2023-08-08T15:22:43;19.10;43.90
21734;DHT22;11029;47.820;10.534;2023-08-08T15:25:10;19.00;46.10